sensor_id;sensor_type;location;lat;lon;timestamp;P1;durP1;ratioP1;P2;durP2;ratioP2
12968;SDS011;6549;53.128;8.182;2022-07-11T00:02:02;6.30;;;3.13;;
12968;SDS011;6549;53.128;8.182;2022-07-11T00:05:03;7.90;;;4.15;;
12968;SDS011;6549;53.128;8.182;2022-07-11T00:08:04;6.50;;;3.60;;
12968;SDS011;6549;53.128;8.182;2022-07-11T00:14:07;5.03;;;3.20;;
12968;SDS011;6549;53.128;8.182;2022-07-11T00:17:07;6.70;;;3.60;;
12968;SDS011;6549;53.128;8.182;2022-07-11T00:20:08;9.43;;;3.95;;
12968;SDS011;6549;53.128;8.182;2022-07-11T00:23:09;7.55;;;3.60;;
12968;SDS011;6549;53.128;8.182;2022-07-11T00:26:10;3.60;;;3.00;;
12968;SDS011;6549;53.128;8.182;2022-07-11T00:29:10;7.72;;;3.20;;
12968;SDS011;6549;53.128;8.182;2022-07-11T00:32:10;6.80;;;3.50;;
12968;SDS011;6549;53.128;8.182;2022-07-11T00:35:11;3.83;;;2.95;;
12968;SDS011;6549;53.128;8.182;2022-07-11T00:38:11;5.20;;;3.13;;
12968;SDS011;6549;53.128;8.182;2022-07-11T00:41:11;7.90;;;3.40;;
12968;SDS011;6549;53.128;8.182;2022-07-11T00:44:12;5.28;;;2.72;;
12968;SDS011;6549;53.128;8.182;2022-07-11T00:47:13;4.70;;;2.83;;
12968;SDS011;6549;53.128;8.182;2022-07-11T00:50:14;5.68;;;2.92;;
12968;SDS011;6549;53.128;8.182;2022-07-11T00:53:15;4.85;;;3.00;;
12968;SDS011;6549;53.128;8.182;2022-07-11T00:56:16;6.03;;;2.97;;
12968;SDS011;6549;53.128;8.182;2022-07-11T00:59:17;4.57;;;2.78;;
12968;SDS011;6549;53.128;8.182;2022-07-11T01:02:18;4.35;;;2.42;;
12968;SDS011;6549;53.128;8.182;2022-07-11T01:05:18;4.85;;;2.55;;
12968;SDS011;6549;53.128;8.182;2022-07-11T01:08:18;4.65;;;2.55;;
12968;SDS011;6549;53.128;8.182;2022-07-11T01:11:19;4.88;;;2.70;;
12968;SDS011;6549;53.128;8.182;2022-07-11T01:14:20;4.40;;;3.10;;
12968;SDS011;6549;53.128;8.182;2022-07-11T01:17:20;5.20;;;2.83;;
12968;SDS011;6549;53.128;8.182;2022-07-11T01:20:21;6.75;;;3.33;;
12968;SDS011;6549;53.128;8.182;2022-07-11T01:23:24;4.70;;;2.90;;
12968;SDS011;6549;53.128;8.182;2022-07-11T01:26:25;4.07;;;2.65;;
12968;SDS011;6549;53.128;8.182;2022-07-11T01:29:26;8.05;;;3.10;;
12968;SDS011;6549;53.128;8.182;2022-07-11T01:32:26;6.40;;;3.15;;
12968;SDS011;6549;53.128;8.182;2022-07-11T01:35:27;5.70;;;3.10;;
12968;SDS011;6549;53.128;8.182;2022-07-11T01:38:28;4.78;;;2.70;;
12968;SDS011;6549;53.128;8.182;2022-07-11T01:41:29;5.25;;;2.67;;
12968;SDS011;6549;53.128;8.182;2022-07-11T01:44:29;4.50;;;2.78;;
12968;SDS011;6549;53.128;8.182;2022-07-11T01:47:29;4.47;;;2.90;;
12968;SDS011;6549;53.128;8.182;2022-07-11T01:50:30;6.82;;;3.28;;
12968;SDS011;6549;53.128;8.182;2022-07-11T01:53:31;4.50;;;2.47;;
12968;SDS011;6549;53.128;8.182;2022-07-11T01:56:31;4.70;;;2.30;;
12968;SDS011;6549;53.128;8.182;2022-07-11T01:59:33;3.50;;;2.37;;
12968;SDS011;6549;53.128;8.182;2022-07-11T02:02:33;6.80;;;3.88;;
12968;SDS011;6549;53.128;8.182;2022-07-11T02:05:33;4.25;;;2.95;;
12968;SDS011;6549;53.128;8.182;2022-07-11T02:08:34;5.63;;;2.90;;
12968;SDS011;6549;53.128;8.182;2022-07-11T02:11:34;4.53;;;2.50;;
12968;SDS011;6549;53.128;8.182;2022-07-11T02:14:35;4.93;;;2.70;;
12968;SDS011;6549;53.128;8.182;2022-07-11T02:17:35;4.30;;;2.75;;
12968;SDS011;6549;53.128;8.182;2022-07-11T02:20:36;6.35;;;3.35;;
12968;SDS011;6549;53.128;8.182;2022-07-11T02:23:36;4.15;;;2.58;;
12968;SDS011;6549;53.128;8.182;2022-07-11T02:26:37;3.88;;;2.38;;
12968;SDS011;6549;53.128;8.182;2022-07-11T02:29:37;3.47;;;2.70;;
12968;SDS011;6549;53.128;8.182;2022-07-11T02:32:37;2.95;;;2.30;;
12968;SDS011;6549;53.128;8.182;2022-07-11T02:35:38;4.72;;;2.65;;
12968;SDS011;6549;53.128;8.182;2022-07-11T02:38:38;2.92;;;2.00;;
12968;SDS011;6549;53.128;8.182;2022-07-11T02:41:39;2.92;;;2.13;;
12968;SDS011;6549;53.128;8.182;2022-07-11T02:44:39;2.53;;;2.08;;
12968;SDS011;6549;53.128;8.182;2022-07-11T02:47:40;2.65;;;2.15;;
12968;SDS011;6549;53.128;8.182;2022-07-11T02:50:42;5.85;;;2.80;;
12968;SDS011;6549;53.128;8.182;2022-07-11T02:53:42;5.00;;;3.35;;
12968;SDS011;6549;53.128;8.182;2022-07-11T02:56:42;5.93;;;3.20;;
12968;SDS011;6549;53.128;8.182;2022-07-11T02:59:43;5.22;;;3.33;;
12968;SDS011;6549;53.128;8.182;2022-07-11T03:02:43;4.47;;;2.60;;
12968;SDS011;6549;53.128;8.182;2022-07-11T03:05:44;4.88;;;3.28;;
12968;SDS011;6549;53.128;8.182;2022-07-11T03:08:45;4.15;;;2.75;;
12968;SDS011;6549;53.128;8.182;2022-07-11T03:11:45;6.00;;;4.32;;
12968;SDS011;6549;53.128;8.182;2022-07-11T03:14:45;7.57;;;3.70;;
12968;SDS011;6549;53.128;8.182;2022-07-11T03:17:46;4.68;;;2.92;;
12968;SDS011;6549;53.128;8.182;2022-07-11T03:20:47;5.43;;;3.60;;
12968;SDS011;6549;53.128;8.182;2022-07-11T03:23:48;5.03;;;3.22;;
12968;SDS011;6549;53.128;8.182;2022-07-11T03:26:49;8.57;;;4.03;;
12968;SDS011;6549;53.128;8.182;2022-07-11T03:29:50;4.68;;;3.08;;
12968;SDS011;6549;53.128;8.182;2022-07-11T03:32:50;5.45;;;3.40;;
12968;SDS011;6549;53.128;8.182;2022-07-11T03:35:50;4.35;;;3.03;;
12968;SDS011;6549;53.128;8.182;2022-07-11T03:38:51;5.38;;;3.63;;
12968;SDS011;6549;53.128;8.182;2022-07-11T03:41:51;4.10;;;2.70;;
12968;SDS011;6549;53.128;8.182;2022-07-11T03:44:52;7.75;;;4.22;;
12968;SDS011;6549;53.128;8.182;2022-07-11T03:47:52;5.50;;;3.95;;
12968;SDS011;6549;53.128;8.182;2022-07-11T03:50:53;7.55;;;4.00;;
12968;SDS011;6549;53.128;8.182;2022-07-11T03:53:53;6.00;;;3.30;;
12968;SDS011;6549;53.128;8.182;2022-07-11T03:56:54;6.47;;;3.97;;
12968;SDS011;6549;53.128;8.182;2022-07-11T03:59:54;5.15;;;3.30;;
12968;SDS011;6549;53.128;8.182;2022-07-11T04:02:54;4.53;;;2.65;;
12968;SDS011;6549;53.128;8.182;2022-07-11T04:05:55;5.80;;;2.90;;
12968;SDS011;6549;53.128;8.182;2022-07-11T04:08:55;6.05;;;3.70;;
12968;SDS011;6549;53.128;8.182;2022-07-11T04:11:55;7.38;;;3.95;;
12968;SDS011;6549;53.128;8.182;2022-07-11T04:14:56;4.65;;;2.88;;
12968;SDS011;6549;53.128;8.182;2022-07-11T04:17:56;5.45;;;3.58;;
12968;SDS011;6549;53.128;8.182;2022-07-11T04:20:56;6.50;;;4.10;;
12968;SDS011;6549;53.128;8.182;2022-07-11T04:23:57;5.32;;;3.30;;
12968;SDS011;6549;53.128;8.182;2022-07-11T04:26:57;5.88;;;3.70;;
12968;SDS011;6549;53.128;8.182;2022-07-11T04:29:57;7.50;;;4.30;;
12968;SDS011;6549;53.128;8.182;2022-07-11T04:32:58;3.53;;;2.85;;
12968;SDS011;6549;53.128;8.182;2022-07-11T04:35:58;5.03;;;3.10;;
12968;SDS011;6549;53.128;8.182;2022-07-11T04:38:58;4.43;;;2.72;;
12968;SDS011;6549;53.128;8.182;2022-07-11T04:41:59;5.20;;;2.95;;
12968;SDS011;6549;53.128;8.182;2022-07-11T04:45:00;3.28;;;2.63;;
12968;SDS011;6549;53.128;8.182;2022-07-11T04:48:01;5.35;;;3.08;;
12968;SDS011;6549;53.128;8.182;2022-07-11T04:51:01;4.47;;;3.00;;
12968;SDS011;6549;53.128;8.182;2022-07-11T04:54:02;4.65;;;3.35;;
12968;SDS011;6549;53.128;8.182;2022-07-11T04:57:02;6.15;;;3.65;;
12968;SDS011;6549;53.128;8.182;2022-07-11T05:00:03;6.15;;;3.50;;
12968;SDS011;6549;53.128;8.182;2022-07-11T05:03:04;4.45;;;2.92;;
12968;SDS011;6549;53.128;8.182;2022-07-11T05:06:05;6.78;;;3.17;;
12968;SDS011;6549;53.128;8.182;2022-07-11T05:09:06;3.40;;;2.20;;
12968;SDS011;6549;53.128;8.182;2022-07-11T05:12:08;4.60;;;2.60;;
12968;SDS011;6549;53.128;8.182;2022-07-11T05:15:08;4.80;;;2.70;;
12968;SDS011;6549;53.128;8.182;2022-07-11T05:18:09;4.55;;;3.20;;
12968;SDS011;6549;53.128;8.182;2022-07-11T05:21:10;5.65;;;3.40;;
12968;SDS011;6549;53.128;8.182;2022-07-11T05:24:10;3.97;;;2.90;;
12968;SDS011;6549;53.128;8.182;2022-07-11T05:27:11;6.07;;;3.92;;
12968;SDS011;6549;53.128;8.182;2022-07-11T05:30:11;5.15;;;3.28;;
12968;SDS011;6549;53.128;8.182;2022-07-11T05:33:11;5.53;;;3.35;;
12968;SDS011;6549;53.128;8.182;2022-07-11T05:36:12;3.03;;;2.70;;
12968;SDS011;6549;53.128;8.182;2022-07-11T05:39:12;4.93;;;3.13;;
12968;SDS011;6549;53.128;8.182;2022-07-11T05:42:12;3.15;;;2.50;;
12968;SDS011;6549;53.128;8.182;2022-07-11T05:45:14;4.50;;;2.65;;
12968;SDS011;6549;53.128;8.182;2022-07-11T05:48:14;3.53;;;2.10;;
12968;SDS011;6549;53.128;8.182;2022-07-11T05:51:15;5.18;;;2.90;;
12968;SDS011;6549;53.128;8.182;2022-07-11T05:54:16;3.22;;;2.28;;
12968;SDS011;6549;53.128;8.182;2022-07-11T05:57:16;3.42;;;2.10;;
12968;SDS011;6549;53.128;8.182;2022-07-11T06:00:17;2.90;;;2.40;;
12968;SDS011;6549;53.128;8.182;2022-07-11T06:03:17;2.88;;;2.33;;
12968;SDS011;6549;53.128;8.182;2022-07-11T06:06:18;2.75;;;2.10;;
12968;SDS011;6549;53.128;8.182;2022-07-11T06:09:18;2.20;;;1.98;;
12968;SDS011;6549;53.128;8.182;2022-07-11T06:12:18;2.63;;;2.17;;
12968;SDS011;6549;53.128;8.182;2022-07-11T06:15:19;3.30;;;2.20;;
12968;SDS011;6549;53.128;8.182;2022-07-11T06:18:19;2.58;;;2.17;;
12968;SDS011;6549;53.128;8.182;2022-07-11T06:21:20;5.28;;;2.20;;
12968;SDS011;6549;53.128;8.182;2022-07-11T06:24:21;4.50;;;2.42;;
12968;SDS011;6549;53.128;8.182;2022-07-11T06:27:21;4.85;;;2.30;;
12968;SDS011;6549;53.128;8.182;2022-07-11T06:30:22;3.40;;;1.92;;
12968;SDS011;6549;53.128;8.182;2022-07-11T06:33:22;3.10;;;1.80;;
12968;SDS011;6549;53.128;8.182;2022-07-11T06:36:23;3.05;;;1.70;;
12968;SDS011;6549;53.128;8.182;2022-07-11T06:39:24;3.42;;;1.98;;
12968;SDS011;6549;53.128;8.182;2022-07-11T06:42:25;3.58;;;1.70;;
12968;SDS011;6549;53.128;8.182;2022-07-11T06:45:25;3.65;;;1.80;;
12968;SDS011;6549;53.128;8.182;2022-07-11T06:48:26;2.70;;;1.77;;
12968;SDS011;6549;53.128;8.182;2022-07-11T06:51:27;2.28;;;1.50;;
12968;SDS011;6549;53.128;8.182;2022-07-11T06:54:27;2.20;;;1.35;;
12968;SDS011;6549;53.128;8.182;2022-07-11T06:57:28;1.55;;;1.23;;
12968;SDS011;6549;53.128;8.182;2022-07-11T07:00:28;3.10;;;1.30;;
12968;SDS011;6549;53.128;8.182;2022-07-11T07:03:29;2.22;;;1.10;;
12968;SDS011;6549;53.128;8.182;2022-07-11T07:06:31;1.83;;;1.10;;
12968;SDS011;6549;53.128;8.182;2022-07-11T07:09:31;1.25;;;0.98;;
12968;SDS011;6549;53.128;8.182;2022-07-11T07:12:32;2.50;;;1.20;;
12968;SDS011;6549;53.128;8.182;2022-07-11T07:15:32;2.10;;;1.30;;
12968;SDS011;6549;53.128;8.182;2022-07-11T07:18:33;2.08;;;0.93;;
12968;SDS011;6549;53.128;8.182;2022-07-11T07:21:33;2.17;;;1.00;;
12968;SDS011;6549;53.128;8.182;2022-07-11T07:24:34;0.88;;;0.80;;
12968;SDS011;6549;53.128;8.182;2022-07-11T07:27:36;1.67;;;1.10;;
12968;SDS011;6549;53.128;8.182;2022-07-11T07:30:36;1.58;;;1.10;;
12968;SDS011;6549;53.128;8.182;2022-07-11T07:33:37;1.75;;;1.20;;
12968;SDS011;6549;53.128;8.182;2022-07-11T07:36:38;1.35;;;1.23;;
12968;SDS011;6549;53.128;8.182;2022-07-11T07:39:38;4.53;;;2.10;;
12968;SDS011;6549;53.128;8.182;2022-07-11T07:42:38;3.10;;;1.30;;
12968;SDS011;6549;53.128;8.182;2022-07-11T07:45:39;1.63;;;1.10;;
12968;SDS011;6549;53.128;8.182;2022-07-11T07:48:39;2.47;;;1.30;;
12968;SDS011;6549;53.128;8.182;2022-07-11T07:51:39;2.30;;;1.40;;
12968;SDS011;6549;53.128;8.182;2022-07-11T07:54:40;1.33;;;1.00;;
12968;SDS011;6549;53.128;8.182;2022-07-11T07:57:41;3.22;;;1.20;;
12968;SDS011;6549;53.128;8.182;2022-07-11T08:00:41;4.07;;;1.40;;
12968;SDS011;6549;53.128;8.182;2022-07-11T08:04:04;3.63;;;1.40;;
12968;SDS011;6549;53.128;8.182;2022-07-11T08:07:06;3.70;;;1.10;;
12968;SDS011;6549;53.128;8.182;2022-07-11T08:10:06;1.63;;;0.90;;
12968;SDS011;6549;53.128;8.182;2022-07-11T08:13:07;2.78;;;1.10;;
12968;SDS011;6549;53.128;8.182;2022-07-11T08:16:07;2.75;;;1.30;;
12968;SDS011;6549;53.128;8.182;2022-07-11T08:19:08;2.55;;;1.00;;
12968;SDS011;6549;53.128;8.182;2022-07-11T08:22:09;2.85;;;1.00;;
12968;SDS011;6549;53.128;8.182;2022-07-11T08:25:11;2.53;;;1.10;;
12968;SDS011;6549;53.128;8.182;2022-07-11T08:28:11;2.28;;;0.90;;
12968;SDS011;6549;53.128;8.182;2022-07-11T08:31:12;1.92;;;0.80;;
12968;SDS011;6549;53.128;8.182;2022-07-11T08:34:12;2.50;;;0.80;;
12968;SDS011;6549;53.128;8.182;2022-07-11T08:37:13;1.52;;;0.75;;
12968;SDS011;6549;53.128;8.182;2022-07-11T08:40:14;3.35;;;0.82;;
12968;SDS011;6549;53.128;8.182;2022-07-11T08:43:15;1.00;;;0.60;;
12968;SDS011;6549;53.128;8.182;2022-07-11T08:46:16;2.33;;;1.00;;
12968;SDS011;6549;53.128;8.182;2022-07-11T08:49:17;1.70;;;0.90;;
12968;SDS011;6549;53.128;8.182;2022-07-11T08:52:18;0.77;;;0.70;;
12968;SDS011;6549;53.128;8.182;2022-07-11T08:55:20;1.45;;;0.63;;
12968;SDS011;6549;53.128;8.182;2022-07-11T08:58:20;1.80;;;0.73;;
12968;SDS011;6549;53.128;8.182;2022-07-11T09:04:34;1.85;;;0.70;;
12968;SDS011;6549;53.128;8.182;2022-07-11T09:07:35;0.88;;;0.60;;
12968;SDS011;6549;53.128;8.182;2022-07-11T09:10:46;2.25;;;0.43;;
12968;SDS011;6549;53.128;8.182;2022-07-11T09:13:46;1.85;;;0.70;;
12968;SDS011;6549;53.128;8.182;2022-07-11T09:17:00;0.68;;;0.60;;
12968;SDS011;6549;53.128;8.182;2022-07-11T09:20:02;1.10;;;0.70;;
12968;SDS011;6549;53.128;8.182;2022-07-11T09:23:04;2.88;;;0.68;;
12968;SDS011;6549;53.128;8.182;2022-07-11T09:26:38;1.23;;;0.70;;
12968;SDS011;6549;53.128;8.182;2022-07-11T09:29:43;2.17;;;0.65;;
12968;SDS011;6549;53.128;8.182;2022-07-11T09:35:59;2.20;;;0.50;;
12968;SDS011;6549;53.128;8.182;2022-07-11T09:39:03;1.85;;;0.70;;
12968;SDS011;6549;53.128;8.182;2022-07-11T09:42:05;0.82;;;0.60;;
12968;SDS011;6549;53.128;8.182;2022-07-11T09:45:11;0.82;;;0.50;;
12968;SDS011;6549;53.128;8.182;2022-07-11T09:48:13;1.65;;;0.60;;
12968;SDS011;6549;53.128;8.182;2022-07-11T09:51:19;2.63;;;0.60;;
12968;SDS011;6549;53.128;8.182;2022-07-11T09:54:19;1.45;;;0.70;;
12968;SDS011;6549;53.128;8.182;2022-07-11T09:57:41;1.77;;;0.60;;
12968;SDS011;6549;53.128;8.182;2022-07-11T10:00:41;1.02;;;0.70;;
12968;SDS011;6549;53.128;8.182;2022-07-11T10:03:43;1.13;;;0.70;;
12968;SDS011;6549;53.128;8.182;2022-07-11T10:06:43;1.17;;;0.70;;
12968;SDS011;6549;53.128;8.182;2022-07-11T10:09:47;2.22;;;0.70;;
12968;SDS011;6549;53.128;8.182;2022-07-11T10:12:47;2.22;;;0.60;;
12968;SDS011;6549;53.128;8.182;2022-07-11T10:15:48;0.63;;;0.40;;
12968;SDS011;6549;53.128;8.182;2022-07-11T10:18:50;0.60;;;0.50;;
12968;SDS011;6549;53.128;8.182;2022-07-11T10:22:59;1.23;;;0.50;;
12968;SDS011;6549;53.128;8.182;2022-07-11T10:29:07;1.85;;;0.50;;
12968;SDS011;6549;53.128;8.182;2022-07-11T10:32:20;1.17;;;0.57;;
12968;SDS011;6549;53.128;8.182;2022-07-11T10:35:20;1.58;;;0.50;;
12968;SDS011;6549;53.128;8.182;2022-07-11T10:38:21;0.55;;;0.55;;
12968;SDS011;6549;53.128;8.182;2022-07-11T10:41:24;0.65;;;0.60;;
12968;SDS011;6549;53.128;8.182;2022-07-11T10:44:25;0.85;;;0.70;;
12968;SDS011;6549;53.128;8.182;2022-07-11T10:47:30;0.63;;;0.60;;
12968;SDS011;6549;53.128;8.182;2022-07-11T10:50:34;0.70;;;0.70;;
12968;SDS011;6549;53.128;8.182;2022-07-11T10:53:45;2.10;;;0.68;;
12968;SDS011;6549;53.128;8.182;2022-07-11T10:56:53;1.42;;;0.73;;
12968;SDS011;6549;53.128;8.182;2022-07-11T10:59:57;2.00;;;0.70;;
12968;SDS011;6549;53.128;8.182;2022-07-11T11:03:05;0.85;;;0.60;;
12968;SDS011;6549;53.128;8.182;2022-07-11T11:06:07;2.58;;;0.80;;
12968;SDS011;6549;53.128;8.182;2022-07-11T11:09:36;1.95;;;0.80;;
12968;SDS011;6549;53.128;8.182;2022-07-11T11:16:20;1.48;;;0.70;;
12968;SDS011;6549;53.128;8.182;2022-07-11T11:23:07;1.58;;;0.70;;
12968;SDS011;6549;53.128;8.182;2022-07-11T11:26:16;0.60;;;0.60;;
12968;SDS011;6549;53.128;8.182;2022-07-11T11:29:18;2.08;;;0.60;;
12968;SDS011;6549;53.128;8.182;2022-07-11T11:32:22;0.60;;;0.60;;
12968;SDS011;6549;53.128;8.182;2022-07-11T11:35:34;0.50;;;0.50;;
12968;SDS011;6549;53.128;8.182;2022-07-11T11:38:55;1.75;;;0.70;;
12968;SDS011;6549;53.128;8.182;2022-07-11T11:42:00;0.50;;;0.43;;
12968;SDS011;6549;53.128;8.182;2022-07-11T11:45:11;1.27;;;0.50;;
12968;SDS011;6549;53.128;8.182;2022-07-11T11:48:25;1.60;;;0.50;;
12968;SDS011;6549;53.128;8.182;2022-07-11T11:51:32;0.98;;;0.50;;
12968;SDS011;6549;53.128;8.182;2022-07-11T11:54:32;1.48;;;0.60;;
12968;SDS011;6549;53.128;8.182;2022-07-11T11:57:33;0.90;;;0.70;;
12968;SDS011;6549;53.128;8.182;2022-07-11T12:00:33;1.33;;;0.80;;
12968;SDS011;6549;53.128;8.182;2022-07-11T12:06:54;0.80;;;0.80;;
12968;SDS011;6549;53.128;8.182;2022-07-11T12:09:55;0.70;;;0.70;;
12968;SDS011;6549;53.128;8.182;2022-07-11T12:12:56;1.95;;;0.85;;
12968;SDS011;6549;53.128;8.182;2022-07-11T12:15:58;1.10;;;0.77;;
12968;SDS011;6549;53.128;8.182;2022-07-11T12:19:18;0.50;;;0.50;;
12968;SDS011;6549;53.128;8.182;2022-07-11T12:22:22;1.45;;;0.70;;
12968;SDS011;6549;53.128;8.182;2022-07-11T12:25:23;1.23;;;0.90;;
12968;SDS011;6549;53.128;8.182;2022-07-11T12:28:23;1.13;;;0.70;;
12968;SDS011;6549;53.128;8.182;2022-07-11T12:31:23;1.02;;;0.40;;
12968;SDS011;6549;53.128;8.182;2022-07-11T12:34:25;1.30;;;0.60;;
12968;SDS011;6549;53.128;8.182;2022-07-11T12:37:36;1.00;;;0.60;;
12968;SDS011;6549;53.128;8.182;2022-07-11T12:40:37;0.65;;;0.57;;
12968;SDS011;6549;53.128;8.182;2022-07-11T12:43:48;1.38;;;0.70;;
12968;SDS011;6549;53.128;8.182;2022-07-11T12:47:08;0.68;;;0.68;;
12968;SDS011;6549;53.128;8.182;2022-07-11T12:50:15;1.00;;;0.63;;
12968;SDS011;6549;53.128;8.182;2022-07-11T12:53:19;1.33;;;0.70;;
12968;SDS011;6549;53.128;8.182;2022-07-11T12:56:22;1.20;;;0.85;;
12968;SDS011;6549;53.128;8.182;2022-07-11T12:59:23;0.65;;;0.55;;
12968;SDS011;6549;53.128;8.182;2022-07-11T13:02:25;1.95;;;0.52;;
12968;SDS011;6549;53.128;8.182;2022-07-11T13:05:26;1.07;;;0.53;;
12968;SDS011;6549;53.128;8.182;2022-07-11T13:08:28;1.08;;;0.80;;
12968;SDS011;6549;53.128;8.182;2022-07-11T13:11:47;1.65;;;0.80;;
12968;SDS011;6549;53.128;8.182;2022-07-11T13:14:47;1.08;;;0.60;;
12968;SDS011;6549;53.128;8.182;2022-07-11T13:18:06;0.70;;;0.60;;
12968;SDS011;6549;53.128;8.182;2022-07-11T13:21:08;1.02;;;0.75;;
12968;SDS011;6549;53.128;8.182;2022-07-11T13:24:09;1.95;;;0.60;;
12968;SDS011;6549;53.128;8.182;2022-07-11T13:27:09;1.52;;;0.80;;
12968;SDS011;6549;53.128;8.182;2022-07-11T13:30:10;0.60;;;0.60;;
12968;SDS011;6549;53.128;8.182;2022-07-11T13:33:16;1.02;;;0.73;;
12968;SDS011;6549;53.128;8.182;2022-07-11T13:36:16;0.70;;;0.70;;
12968;SDS011;6549;53.128;8.182;2022-07-11T13:39:16;0.70;;;0.70;;
12968;SDS011;6549;53.128;8.182;2022-07-11T13:42:17;3.42;;;0.70;;
12968;SDS011;6549;53.128;8.182;2022-07-11T13:45:18;1.15;;;0.85;;
12968;SDS011;6549;53.128;8.182;2022-07-11T13:48:20;1.10;;;0.80;;
12968;SDS011;6549;53.128;8.182;2022-07-11T13:51:20;1.65;;;0.80;;
12968;SDS011;6549;53.128;8.182;2022-07-11T13:54:21;0.80;;;0.77;;
12968;SDS011;6549;53.128;8.182;2022-07-11T13:57:21;1.75;;;0.73;;
12968;SDS011;6549;53.128;8.182;2022-07-11T14:00:22;1.00;;;0.60;;
12968;SDS011;6549;53.128;8.182;2022-07-11T14:03:23;0.98;;;0.80;;
12968;SDS011;6549;53.128;8.182;2022-07-11T14:06:23;1.48;;;0.60;;
12968;SDS011;6549;53.128;8.182;2022-07-11T14:09:24;0.70;;;0.70;;
12968;SDS011;6549;53.128;8.182;2022-07-11T14:12:24;2.10;;;0.77;;
12968;SDS011;6549;53.128;8.182;2022-07-11T14:15:26;1.60;;;0.80;;
12968;SDS011;6549;53.128;8.182;2022-07-11T14:18:26;0.82;;;0.70;;
12968;SDS011;6549;53.128;8.182;2022-07-11T14:21:26;0.85;;;0.77;;
12968;SDS011;6549;53.128;8.182;2022-07-11T14:24:28;1.00;;;0.90;;
12968;SDS011;6549;53.128;8.182;2022-07-11T14:27:28;1.73;;;0.80;;
12968;SDS011;6549;53.128;8.182;2022-07-11T14:30:29;0.60;;;0.60;;
12968;SDS011;6549;53.128;8.182;2022-07-11T14:33:29;0.75;;;0.73;;
12968;SDS011;6549;53.128;8.182;2022-07-11T14:36:29;1.90;;;0.80;;
12968;SDS011;6549;53.128;8.182;2022-07-11T14:39:30;0.90;;;0.73;;
12968;SDS011;6549;53.128;8.182;2022-07-11T14:42:31;0.80;;;0.70;;
12968;SDS011;6549;53.128;8.182;2022-07-11T14:45:32;1.25;;;0.80;;
12968;SDS011;6549;53.128;8.182;2022-07-11T14:48:32;0.70;;;0.70;;
12968;SDS011;6549;53.128;8.182;2022-07-11T14:51:33;3.38;;;0.98;;
12968;SDS011;6549;53.128;8.182;2022-07-11T14:54:33;0.93;;;0.80;;
12968;SDS011;6549;53.128;8.182;2022-07-11T14:57:34;1.00;;;0.80;;
12968;SDS011;6549;53.128;8.182;2022-07-11T15:00:35;1.42;;;0.70;;
12968;SDS011;6549;53.128;8.182;2022-07-11T15:03:35;1.05;;;0.80;;
12968;SDS011;6549;53.128;8.182;2022-07-11T15:06:38;0.88;;;0.70;;
12968;SDS011;6549;53.128;8.182;2022-07-11T15:09:57;1.23;;;0.85;;
12968;SDS011;6549;53.128;8.182;2022-07-11T15:13:33;2.40;;;1.00;;
12968;SDS011;6549;53.128;8.182;2022-07-11T15:16:33;0.85;;;0.85;;
12968;SDS011;6549;53.128;8.182;2022-07-11T15:19:34;0.68;;;0.68;;
12968;SDS011;6549;53.128;8.182;2022-07-11T15:22:34;2.65;;;0.80;;
12968;SDS011;6549;53.128;8.182;2022-07-11T15:25:35;1.63;;;0.63;;
12968;SDS011;6549;53.128;8.182;2022-07-11T15:28:36;2.63;;;0.80;;
12968;SDS011;6549;53.128;8.182;2022-07-11T15:31:36;1.38;;;0.65;;
12968;SDS011;6549;53.128;8.182;2022-07-11T15:34:37;1.30;;;0.70;;
12968;SDS011;6549;53.128;8.182;2022-07-11T15:37:37;0.85;;;0.80;;
12968;SDS011;6549;53.128;8.182;2022-07-11T15:40:38;2.33;;;0.90;;
12968;SDS011;6549;53.128;8.182;2022-07-11T15:43:38;0.60;;;0.60;;
12968;SDS011;6549;53.128;8.182;2022-07-11T15:46:38;1.95;;;0.65;;
12968;SDS011;6549;53.128;8.182;2022-07-11T15:49:39;2.13;;;0.90;;
12968;SDS011;6549;53.128;8.182;2022-07-11T15:52:40;0.93;;;0.82;;
12968;SDS011;6549;53.128;8.182;2022-07-11T15:55:40;0.63;;;0.63;;
12968;SDS011;6549;53.128;8.182;2022-07-11T15:58:41;1.05;;;0.80;;
12968;SDS011;6549;53.128;8.182;2022-07-11T16:01:41;0.50;;;0.50;;
12968;SDS011;6549;53.128;8.182;2022-07-11T16:04:41;1.45;;;0.80;;
12968;SDS011;6549;53.128;8.182;2022-07-11T16:07:42;1.02;;;0.80;;
12968;SDS011;6549;53.128;8.182;2022-07-11T16:10:43;0.95;;;0.70;;
12968;SDS011;6549;53.128;8.182;2022-07-11T16:13:44;0.80;;;0.70;;
12968;SDS011;6549;53.128;8.182;2022-07-11T16:16:44;0.70;;;0.70;;
12968;SDS011;6549;53.128;8.182;2022-07-11T16:19:45;1.45;;;0.80;;
12968;SDS011;6549;53.128;8.182;2022-07-11T16:22:45;0.75;;;0.73;;
12968;SDS011;6549;53.128;8.182;2022-07-11T16:25:46;2.65;;;0.80;;
12968;SDS011;6549;53.128;8.182;2022-07-11T16:28:46;1.92;;;0.77;;
12968;SDS011;6549;53.128;8.182;2022-07-11T16:31:47;2.25;;;0.90;;
12968;SDS011;6549;53.128;8.182;2022-07-11T16:34:47;1.27;;;0.73;;
12968;SDS011;6549;53.128;8.182;2022-07-11T16:37:48;1.00;;;0.65;;
12968;SDS011;6549;53.128;8.182;2022-07-11T16:40:48;0.80;;;0.80;;
12968;SDS011;6549;53.128;8.182;2022-07-11T16:44:07;0.90;;;0.82;;
12968;SDS011;6549;53.128;8.182;2022-07-11T16:47:07;2.20;;;0.80;;
12968;SDS011;6549;53.128;8.182;2022-07-11T16:50:08;0.80;;;0.80;;
12968;SDS011;6549;53.128;8.182;2022-07-11T16:53:08;2.65;;;1.05;;
12968;SDS011;6549;53.128;8.182;2022-07-11T16:56:09;1.58;;;1.00;;
12968;SDS011;6549;53.128;8.182;2022-07-11T16:59:09;1.67;;;0.90;;
12968;SDS011;6549;53.128;8.182;2022-07-11T17:02:10;1.15;;;0.80;;
12968;SDS011;6549;53.128;8.182;2022-07-11T17:05:11;1.15;;;0.90;;
12968;SDS011;6549;53.128;8.182;2022-07-11T17:08:12;1.92;;;1.05;;
12968;SDS011;6549;53.128;8.182;2022-07-11T17:11:31;1.15;;;0.90;;
12968;SDS011;6549;53.128;8.182;2022-07-11T17:14:32;0.85;;;0.77;;
12968;SDS011;6549;53.128;8.182;2022-07-11T17:17:32;1.23;;;0.75;;
12968;SDS011;6549;53.128;8.182;2022-07-11T17:20:32;2.60;;;0.90;;
12968;SDS011;6549;53.128;8.182;2022-07-11T17:23:33;2.13;;;0.88;;
12968;SDS011;6549;53.128;8.182;2022-07-11T17:26:34;0.80;;;0.80;;
12968;SDS011;6549;53.128;8.182;2022-07-11T17:29:35;1.05;;;0.80;;
12968;SDS011;6549;53.128;8.182;2022-07-11T17:32:35;1.35;;;0.90;;
12968;SDS011;6549;53.128;8.182;2022-07-11T17:35:37;0.80;;;0.80;;
12968;SDS011;6549;53.128;8.182;2022-07-11T17:38:37;1.58;;;0.90;;
12968;SDS011;6549;53.128;8.182;2022-07-11T17:41:39;0.95;;;0.70;;
12968;SDS011;6549;53.128;8.182;2022-07-11T17:44:39;1.40;;;0.80;;
12968;SDS011;6549;53.128;8.182;2022-07-11T17:47:39;1.20;;;1.00;;
12968;SDS011;6549;53.128;8.182;2022-07-11T17:50:40;1.15;;;0.90;;
12968;SDS011;6549;53.128;8.182;2022-07-11T17:53:44;3.05;;;1.10;;
12968;SDS011;6549;53.128;8.182;2022-07-11T17:56:44;1.67;;;0.80;;
12968;SDS011;6549;53.128;8.182;2022-07-11T17:59:46;1.33;;;1.20;;
12968;SDS011;6549;53.128;8.182;2022-07-11T18:02:46;1.05;;;0.90;;
12968;SDS011;6549;53.128;8.182;2022-07-11T18:05:46;2.22;;;1.08;;
12968;SDS011;6549;53.128;8.182;2022-07-11T18:08:47;2.60;;;0.90;;
12968;SDS011;6549;53.128;8.182;2022-07-11T18:11:47;1.42;;;1.10;;
12968;SDS011;6549;53.128;8.182;2022-07-11T18:14:47;1.35;;;1.05;;
12968;SDS011;6549;53.128;8.182;2022-07-11T18:17:48;1.48;;;1.20;;
12968;SDS011;6549;53.128;8.182;2022-07-11T18:20:48;1.10;;;1.00;;
12968;SDS011;6549;53.128;8.182;2022-07-11T18:23:48;1.10;;;0.73;;
12968;SDS011;6549;53.128;8.182;2022-07-11T18:26:50;1.30;;;1.00;;
12968;SDS011;6549;53.128;8.182;2022-07-11T18:29:51;3.22;;;0.98;;
12968;SDS011;6549;53.128;8.182;2022-07-11T18:32:51;1.63;;;1.00;;
12968;SDS011;6549;53.128;8.182;2022-07-11T18:35:51;1.17;;;0.90;;
12968;SDS011;6549;53.128;8.182;2022-07-11T18:38:52;0.90;;;0.90;;
12968;SDS011;6549;53.128;8.182;2022-07-11T18:42:11;2.97;;;1.20;;
12968;SDS011;6549;53.128;8.182;2022-07-11T18:45:12;2.47;;;1.08;;
12968;SDS011;6549;53.128;8.182;2022-07-11T18:48:13;1.05;;;0.90;;
12968;SDS011;6549;53.128;8.182;2022-07-11T18:51:13;2.65;;;1.10;;
12968;SDS011;6549;53.128;8.182;2022-07-11T18:54:13;2.17;;;1.08;;
12968;SDS011;6549;53.128;8.182;2022-07-11T18:57:14;1.08;;;1.00;;